Time;durP1;ratioP1;P1;durP2;ratioP2;P2;SDS_P1;SDS_P2;PMS_P1;PMS_P2;Temp;Humidity;BMP_temperature;BMP_pressure;BME280_temperature;BME280_humidity;BME280_pressure;Samples;Min_cycle;Max_cycle;Signal;HPM_P1;HPM_P2
2022/09/27 00:00:47;;;;;;;;;;;;;;;6.51;100.00;96865.13;5006504;28;19952;-46
2022/09/27 00:03:14;;;;;;;;;;;;;;;6.43;100.00;96860.38;5009522;28;19925;-46
2022/09/27 00:05:42;;;;;;;;;;;;;;;6.41;100.00;96854.44;5008859;28;19929;-47
2022/09/27 00:08:09;;;;;;;;;;;;;;;6.46;100.00;96851.50;5004188;28;19948;-44
2022/09/27 00:10:36;;;;;;;;;;;;;;;6.40;100.00;96850.13;5008160;28;19945;-45
2022/09/27 00:13:03;;;;;;;;;;;;;;;6.37;100.00;96841.69;5008860;28;19937;-44
2022/09/27 00:15:31;;;;;;;;;;;;;;;6.33;100.00;96841.06;4993371;28;20365;-45
2022/09/27 00:17:59;;;;;;;;;;;;;;;6.34;100.00;96845.34;5004498;28;19996;-45
2022/09/27 00:20:26;;;;;;;;;;;;;;;6.44;100.00;96846.41;4995306;28;19926;-46
2022/09/27 00:22:53;;;;;;;;;;;;;;;6.51;100.00;96837.19;5006814;28;19936;-50
2022/09/27 00:25:21;;;;;;;;;;;;;;;6.43;100.00;96836.88;5008085;28;19934;-45
2022/09/27 00:27:49;;;;;;;;;;;;;;;6.46;100.00;96841.06;4996456;28;20356;-45
2022/09/27 00:30:16;;;;;;;;;;;;;;;6.41;100.00;96830.94;5006224;28;19926;-46
2022/09/27 00:32:45;;;;;;;;;;;;;;;6.38;100.00;96825.06;5007908;28;19925;-47
2022/09/27 00:35:12;;;;;;;;;;;;;;;6.48;100.00;96826.13;4991131;28;19929;-46
2022/09/27 00:37:39;;;;;;;;;;;;;;;6.51;100.00;96831.16;5009413;28;20019;-45
2022/09/27 00:40:07;;;;;;;;;;;;;;;6.30;100.00;96822.13;5006895;28;20351;-45
2022/09/27 00:42:35;;;;;;;;;;;;;;;6.40;100.00;96821.41;5004258;28;20020;-45
2022/09/27 00:45:04;;;;;;;;;;;;;;;6.36;100.00;96825.16;5003632;28;20017;-45
2022/09/27 00:47:35;;;;;;;;;;;;;;;6.46;100.00;96815.78;4997653;28;19936;-46
2022/09/27 00:50:08;;;;;;;;;;;;;;;6.43;100.00;96815.97;5007133;28;19933;-47
2022/09/27 00:52:41;;;;;;;;;;;;;;;6.35;100.00;96817.41;4996878;28;20036;-45
2022/09/27 00:55:11;;;;;;;;;;;;;;;6.33;100.00;96804.50;5005101;28;19933;-46
2022/09/27 00:57:39;;;;;;;;;;;;;;;6.24;100.00;96812.91;4998410;28;19926;-45
2022/09/27 01:00:08;;;;;;;;;;;;;;;6.25;100.00;96800.72;5000642;28;19929;-45
2022/09/27 01:02:36;;;;;;;;;;;;;;;6.18;100.00;96802.88;5004520;28;19930;-45
2022/09/27 01:05:05;;;;;;;;;;;;;;;6.24;100.00;96799.00;4990260;28;20335;-45
2022/09/27 01:07:33;;;;;;;;;;;;;;;6.22;100.00;96796.53;4982860;28;19926;-47
2022/09/27 01:10:01;;;;;;;;;;;;;;;6.11;100.00;96792.94;4997385;28;19984;-48
2022/09/27 01:12:35;;;;;;;;;;;;;;;5.99;100.00;96798.97;4990858;28;19929;-45
2022/09/27 01:15:08;;;;;;;;;;;;;;;5.92;100.00;96795.91;4990513;28;19953;-45
2022/09/27 01:17:43;;;;;;;;;;;;;;;5.79;100.00;96792.41;5005235;28;19932;-46
2022/09/27 01:20:31;;;;;;;;;;;;;;;5.95;100.00;96784.47;5007766;28;19926;-45
2022/09/27 01:23:12;;;;;;;;;;;;;;;5.62;100.00;96790.03;5006206;28;19926;-44
2022/09/27 01:25:48;;;;;;;;;;;;;;;5.62;100.00;96779.59;4988768;28;19929;-45
2022/09/27 01:28:28;;;;;;;;;;;;;;;5.86;100.00;96774.56;5005815;28;20012;-45
2022/09/27 01:31:02;;;;;;;;;;;;;;;5.87;100.00;96774.47;4990453;28;19933;-47
2022/09/27 01:33:37;;;;;;;;;;;;;;;6.03;100.00;96777.78;4957696;28;19925;-45
2022/09/27 01:36:07;;;;;;;;;;;;;;;6.03;100.00;96769.13;4989249;28;19980;-45
2022/09/27 01:38:42;;;;;;;;;;;;;;;5.98;100.00;96769.41;4988039;28;19929;-44
2022/09/27 01:41:15;;;;;;;;;;;;;;;5.90;100.00;96760.38;4989276;28;20839;-46
2022/09/27 01:44:04;;;;;;;;;;;;;;;5.72;100.00;96754.59;5005180;28;20017;-44
2022/09/27 01:46:40;;;;;;;;;;;;;;;5.71;100.00;96755.56;4988930;28;19929;-45
2022/09/27 01:49:26;;;;;;;;;;;;;;;5.77;100.00;96751.69;5010723;28;19925;-45
2022/09/27 01:51:56;;;;;;;;;;;;;;;5.76;100.00;96756.06;4993245;28;19933;-46
2022/09/27 01:54:25;;;;;;;;;;;;;;;5.86;100.00;96744.09;4980914;28;19932;-45
2022/09/27 01:56:54;;;;;;;;;;;;;;;5.89;100.00;96741.31;5011243;28;20024;-46
2022/09/27 01:59:29;;;;;;;;;;;;;;;5.93;100.00;96739.34;4993952;28;20025;-49
2022/09/27 02:02:23;;;;;;;;;;;;;;;5.72;100.00;96731.13;5003746;28;19974;-47
2022/09/27 02:05:12;;;;;;;;;;;;;;;5.69;100.00;96736.53;5011846;28;20385;-44
2022/09/27 02:07:42;;;;;;;;;;;;;;;5.62;100.00;96727.44;4989446;28;19929;-47
2022/09/27 02:10:11;;;;;;;;;;;;;;;5.51;100.00;96719.47;4993404;28;19991;-46
2022/09/27 02:12:52;;;;;;;;;;;;;;;5.43;100.00;96728.72;4994283;28;20305;-47
2022/09/27 02:15:20;;;;;;;;;;;;;;;5.47;100.00;96731.03;4979674;28;19930;-46
2022/09/27 02:18:12;;;;;;;;;;;;;;;5.40;100.00;96726.34;5010165;28;19931;-45
2022/09/27 02:20:41;;;;;;;;;;;;;;;5.26;100.00;96724.56;4992781;28;19980;-46
2022/09/27 02:23:15;;;;;;;;;;;;;;;5.44;100.00;96728.63;4992774;28;20304;-47
2022/09/27 02:25:46;;;;;;;;;;;;;;;5.47;100.00;96720.59;4988486;28;19925;-45
2022/09/27 02:28:23;;;;;;;;;;;;;;;5.52;100.00;96715.09;4984373;28;20034;-48
2022/09/27 02:30:51;;;;;;;;;;;;;;;5.35;100.00;96713.59;4987161;28;19988;-50
2022/09/27 02:33:28;;;;;;;;;;;;;;;5.16;100.00;96710.47;4998387;28;19925;-45
2022/09/27 02:35:55;;;;;;;;;;;;;;;5.18;100.00;96706.00;4989992;28;19925;-46
2022/09/27 02:38:23;;;;;;;;;;;;;;;5.23;100.00;96705.69;4986682;28;19932;-45
2022/09/27 02:40:52;;;;;;;;;;;;;;;5.29;100.00;96710.53;4989013;28;20397;-45
2022/09/27 02:43:20;;;;;;;;;;;;;;;5.30;100.00;96704.38;4971777;28;20620;-47
2022/09/27 02:45:54;;;;;;;;;;;;;;;5.27;100.00;96705.41;4986688;28;19989;-47
2022/09/27 02:48:25;;;;;;;;;;;;;;;5.50;100.00;96704.75;4984308;28;19933;-47
2022/09/27 02:51:11;;;;;;;;;;;;;;;5.37;100.00;96705.66;5003454;28;20361;-46
2022/09/27 02:53:54;;;;;;;;;;;;;;;5.33;100.00;96689.34;5002446;28;19940;-48
2022/09/27 02:56:51;;;;;;;;;;;;;;;5.33;100.00;96685.94;5006061;28;19929;-47
2022/09/27 02:59:42;;;;;;;;;;;;;;;5.21;100.00;96689.31;4993846;28;19980;-46
2022/09/27 03:02:32;;;;;;;;;;;;;;;5.17;100.00;96688.69;4953522;28;19934;-46
2022/09/27 03:05:29;;;;;;;;;;;;;;;4.94;100.00;96697.13;4950516;28;20031;-47
2022/09/27 03:07:56;;;;;;;;;;;;;;;5.00;100.00;96691.50;4937495;28;19930;-45
2022/09/27 03:10:25;;;;;;;;;;;;;;;5.00;100.00;96683.69;4939133;28;19931;-46
2022/09/27 03:12:53;;;;;;;;;;;;;;;5.02;100.00;96681.00;4947772;28;19930;-47
2022/09/27 03:15:21;;;;;;;;;;;;;;;4.98;100.00;96682.97;4958215;28;20121;-52
2022/09/27 03:18:00;;;;;;;;;;;;;;;4.77;100.00;96679.09;4953274;28;19967;-47
2022/09/27 03:20:42;;;;;;;;;;;;;;;4.74;100.00;96674.94;4951382;28;19926;-46
2022/09/27 03:23:17;;;;;;;;;;;;;;;4.70;100.00;96670.00;4958681;28;19937;-47
2022/09/27 03:25:46;;;;;;;;;;;;;;;4.65;100.00;96664.25;4957735;28;19933;-48
2022/09/27 03:28:13;;;;;;;;;;;;;;;4.60;100.00;96664.53;4937502;28;19934;-46
2022/09/27 03:30:42;;;;;;;;;;;;;;;4.51;100.00;96661.66;4938189;28;19935;-45
2022/09/27 03:33:12;;;;;;;;;;;;;;;4.58;100.00;96663.81;4943885;28;19982;-49
2022/09/27 03:35:46;;;;;;;;;;;;;;;4.57;100.00;96656.09;4958744;28;19933;-45
2022/09/27 03:38:14;;;;;;;;;;;;;;;4.23;100.00;96657.31;4948567;28;20484;-45
2022/09/27 03:40:43;;;;;;;;;;;;;;;4.20;100.00;96661.88;4983140;28;19988;-46
2022/09/27 03:43:13;;;;;;;;;;;;;;;4.21;100.00;96653.13;4995209;28;19933;-45
2022/09/27 03:45:40;;;;;;;;;;;;;;;4.30;100.00;96642.16;4992593;28;19926;-45
2022/09/27 03:48:11;;;;;;;;;;;;;;;4.20;100.00;96657.50;4999336;28;19926;-46
2022/09/27 03:50:38;;;;;;;;;;;;;;;4.03;100.00;96660.28;5003649;28;19925;-46
2022/09/27 03:53:05;;;;;;;;;;;;;;;4.06;100.00;96654.06;4988906;28;19936;-46
2022/09/27 03:55:33;;;;;;;;;;;;;;;4.01;100.00;96650.91;5004537;28;19940;-46
2022/09/27 03:58:00;;;;;;;;;;;;;;;4.06;100.00;96651.47;4984200;28;19971;-44
2022/09/27 04:00:31;;;;;;;;;;;;;;;4.01;100.00;96653.50;5002293;28;20153;-46
2022/09/27 04:03:00;;;;;;;;;;;;;;;3.99;100.00;96647.56;5001480;28;19925;-45
2022/09/27 04:05:28;;;;;;;;;;;;;;;3.93;100.00;96651.34;5001984;28;20369;-47
2022/09/27 04:08:09;;;;;;;;;;;;;;;3.99;100.00;96652.75;4989794;28;19926;-45
2022/09/27 04:10:37;;;;;;;;;;;;;;;4.11;100.00;96642.44;4982623;28;19934;-47
2022/09/27 04:13:05;;;;;;;;;;;;;;;4.09;100.00;96638.28;4981994;28;19934;-45
2022/09/27 04:15:39;;;;;;;;;;;;;;;4.11;100.00;96637.25;4980967;28;19930;-46
2022/09/27 04:18:25;;;;;;;;;;;;;;;4.16;100.00;96624.78;4978294;28;20395;-46
2022/09/27 04:21:10;;;;;;;;;;;;;;;4.13;100.00;96617.16;4973065;28;19933;-45
2022/09/27 04:23:43;;;;;;;;;;;;;;;4.09;100.00;96633.06;4970399;28;19994;-45
2022/09/27 04:26:14;;;;;;;;;;;;;;;4.09;100.00;96633.06;4994922;28;19936;-47
2022/09/27 04:29:03;;;;;;;;;;;;;;;3.78;100.00;96628.84;4953845;28;19937;-44
2022/09/27 04:31:36;;;;;;;;;;;;;;;3.88;100.00;96635.19;4984441;28;20385;-47
2022/09/27 04:36:25;;;;;;;;;;;;;;;3.92;100.00;96633.22;4972632;28;20028;-46
2022/09/27 04:37:11;;;;;;;;;;;;;;;3.88;100.00;96648.19;4984668;28;19926;-45
2022/09/27 04:39:41;;;;;;;;;;;;;;;3.92;100.00;96638.44;4982642;28;20017;-46
2022/09/27 04:42:09;;;;;;;;;;;;;;;3.88;100.00;96649.97;4988417;28;20321;-47
2022/09/27 04:44:36;;;;;;;;;;;;;;;4.09;100.00;96651.28;4971058;28;19930;-46
2022/09/27 04:47:05;;;;;;;;;;;;;;;4.15;100.00;96648.28;4983620;28;19930;-45
2022/09/27 04:49:32;;;;;;;;;;;;;;;4.18;100.00;96648.94;4981589;28;20012;-46
2022/09/27 04:52:00;;;;;;;;;;;;;;;4.13;100.00;96650.97;4985509;28;20162;-45
2022/09/27 04:54:28;;;;;;;;;;;;;;;4.13;100.00;96647.56;4971571;28;19926;-47
2022/09/27 04:57:06;;;;;;;;;;;;;;;4.12;100.00;96638.91;4986714;28;19976;-44
2022/09/27 04:59:33;;;;;;;;;;;;;;;4.19;100.00;96648.00;4983905;28;19945;-45
2022/09/27 05:02:01;;;;;;;;;;;;;;;4.31;100.00;96634.25;4973970;28;20020;-48
2022/09/27 05:04:59;;;;;;;;;;;;;;;4.40;100.00;96636.31;4982256;28;19926;-44
2022/09/27 05:07:34;;;;;;;;;;;;;;;4.43;100.00;96637.88;4987796;28;20656;-44
2022/09/27 05:10:06;;;;;;;;;;;;;;;4.45;100.00;96646.41;4972599;28;20179;-44
2022/09/27 05:12:34;;;;;;;;;;;;;;;4.47;100.00;96644.56;4981042;28;19930;-48
2022/09/27 05:15:05;;;;;;;;;;;;;;;4.58;100.00;96642.97;4978323;28;20215;-43
2022/09/27 05:17:52;;;;;;;;;;;;;;;4.70;100.00;96641.34;4980712;28;19934;-45
2022/09/27 05:20:33;;;;;;;;;;;;;;;4.96;100.00;96632.72;4980491;28;19937;-45
2022/09/27 05:23:09;;;;;;;;;;;;;;;5.08;100.00;96625.88;4981716;28;19930;-44
2022/09/27 05:25:36;;;;;;;;;;;;;;;5.09;100.00;96628.41;4979196;28;19930;-44
2022/09/27 05:28:04;;;;;;;;;;;;;;;5.14;100.00;96621.09;4982472;28;19933;-44
2022/09/27 05:30:31;;;;;;;;;;;;;;;5.27;100.00;96616.78;4982064;28;19925;-44
2022/09/27 05:33:08;;;;;;;;;;;;;;;5.47;100.00;96618.88;4994877;28;19941;-44
2022/09/27 05:35:53;;;;;;;;;;;;;;;5.56;100.00;96613.06;4984571;28;19930;-44
2022/09/27 05:38:22;;;;;;;;;;;;;;;5.70;100.00;96618.19;4963482;28;19930;-44
2022/09/27 05:40:52;;;;;;;;;;;;;;;5.82;100.00;96613.94;4982689;28;19926;-44
2022/09/27 05:43:20;;;;;;;;;;;;;;;5.89;100.00;96615.19;4984588;28;20064;-44
2022/09/27 05:45:50;;;;;;;;;;;;;;;5.88;100.00;96618.75;4975150;28;19933;-45
2022/09/27 05:48:19;;;;;;;;;;;;;;;6.02;100.00;96619.50;4984000;28;20377;-44
2022/09/27 05:50:59;;;;;;;;;;;;;;;6.22;100.00;96616.34;4979857;28;19961;-44
2022/09/27 05:53:26;;;;;;;;;;;;;;;6.40;100.00;96617.66;4982112;28;19926;-44
2022/09/27 05:55:54;;;;;;;;;;;;;;;6.44;100.00;96620.91;4984113;28;20393;-44
2022/09/27 05:58:29;;;;;;;;;;;;;;;6.47;100.00;96620.69;4982281;28;19948;-46
2022/09/27 06:01:10;;;;;;;;;;;;;;;6.63;100.00;96614.28;4983597;28;20023;-44
2022/09/27 06:04:00;;;;;;;;;;;;;;;6.71;100.00;96619.78;4957113;28;19934;-44
2022/09/27 06:06:47;;;;;;;;;;;;;;;7.20;100.00;96612.69;4985562;28;19961;-44
2022/09/27 06:09:16;;;;;;;;;;;;;;;7.34;100.00;96607.28;4978837;28;19930;-45
2022/09/27 06:11:45;;;;;;;;;;;;;;;7.60;100.00;96605.34;4980742;28;19926;-47
2022/09/27 06:14:14;;;;;;;;;;;;;;;8.01;100.00;96603.06;4984915;28;19930;-43
2022/09/27 06:17:08;;;;;;;;;;;;;;;8.30;100.00;96601.66;4984192;28;19929;-45
2022/09/27 06:19:39;;;;;;;;;;;;;;;8.77;100.00;96603.16;4980542;28;20684;-44
2022/09/27 06:22:08;;;;;;;;;;;;;;;9.22;100.00;96596.88;4985133;28;19930;-47
2022/09/27 06:24:45;;;;;;;;;;;;;;;9.60;100.00;96600.66;4968619;28;20456;-44
2022/09/27 06:27:20;;;;;;;;;;;;;;;9.77;100.00;96589.56;4968215;28;19933;-44
2022/09/27 06:30:06;;;;;;;;;;;;;;;9.75;100.00;96588.03;4985553;28;19926;-44
2022/09/27 06:32:56;;;;;;;;;;;;;;;9.92;100.00;96603.22;4981101;28;20001;-44
2022/09/27 06:35:49;;;;;;;;;;;;;;;9.90;100.00;96597.25;4983886;28;20408;-43
2022/09/27 06:38:20;;;;;;;;;;;;;;;9.99;100.00;96607.00;4986620;28;19930;-44
2022/09/27 06:41:01;;;;;;;;;;;;;;;10.23;100.00;96600.50;4972017;28;19926;-44
2022/09/27 06:43:44;;;;;;;;;;;;;;;10.40;100.00;96596.44;5001038;28;19940;-44
2022/09/27 06:46:50;;;;;;;;;;;;;;;10.54;100.00;96582.94;4966351;28;20393;-44
2022/09/27 06:49:25;;;;;;;;;;;;;;;10.47;100.00;96590.50;4989679;28;19932;-44
2022/09/27 06:51:53;;;;;;;;;;;;;;;10.50;100.00;96589.38;5005137;28;19926;-46
2022/09/27 06:54:24;;;;;;;;;;;;;;;10.75;100.00;96575.81;4981390;28;20425;-44
2022/09/27 06:56:51;;;;;;;;;;;;;;;10.88;100.00;96581.66;4990748;28;19954;-46
2022/09/27 07:02:24;;;;;;;;;;;;;;;10.90;100.00;96587.59;4985422;28;19930;-45
2022/09/27 07:05:17;;;;;;;;;;;;;;;11.20;100.00;96585.72;4984658;28;19992;-44
2022/09/27 07:08:14;;;;;;;;;;;;;;;11.21;100.00;96578.66;4977520;28;19937;-44
2022/09/27 07:10:43;;;;;;;;;;;;;;;11.20;100.00;96575.19;4987864;28;19933;-45
2022/09/27 07:13:11;;;;;;;;;;;;;;;11.38;100.00;96577.16;5000160;28;19929;-45
2022/09/27 07:15:41;;;;;;;;;;;;;;;11.47;100.00;96575.34;4984547;28;19932;-44
2022/09/27 07:18:12;;;;;;;;;;;;;;;11.67;100.00;96578.78;4997175;28;19925;-44
2022/09/27 07:20:40;;;;;;;;;;;;;;;11.66;100.00;96574.50;5000051;28;19934;-44
2022/09/27 07:23:09;;;;;;;;;;;;;;;11.98;100.00;96568.94;4974697;28;20298;-45
2022/09/27 07:25:37;;;;;;;;;;;;;;;11.93;100.00;96571.19;4977763;28;19937;-45
2022/09/27 07:28:06;;;;;;;;;;;;;;;12.08;100.00;96575.84;4982298;28;19929;-44
2022/09/27 07:30:35;;;;;;;;;;;;;;;11.81;100.00;96573.09;4994072;28;20120;-48
2022/09/27 07:33:05;;;;;;;;;;;;;;;11.75;100.00;96578.09;4983537;28;19953;-43
2022/09/27 07:35:32;;;;;;;;;;;;;;;11.92;100.00;96572.13;4981387;28;19937;-45
2022/09/27 07:37:59;;;;;;;;;;;;;;;12.01;100.00;96579.19;4984089;28;19926;-47
2022/09/27 07:40:27;;;;;;;;;;;;;;;11.92;100.00;96566.84;4996731;28;19926;-43
2022/09/27 07:42:55;;;;;;;;;;;;;;;11.96;100.00;96561.16;4967444;28;19937;-44
2022/09/27 07:45:24;;;;;;;;;;;;;;;12.01;100.00;96569.47;4975069;28;20208;-45
2022/09/27 07:48:24;;;;;;;;;;;;;;;12.12;100.00;96564.03;4920842;29;19941;-44
2022/09/27 07:51:17;;;;;;;;;;;;;;;12.29;100.00;96573.84;4915898;29;19927;-44
2022/09/27 07:53:56;;;;;;;;;;;;;;;12.32;100.00;96573.56;4917033;29;19928;-44
2022/09/27 07:56:49;;;;;;;;;;;;;;;12.56;100.00;96571.22;4854138;29;19950;-45
2022/09/27 07:59:20;;;;;;;;;;;;;;;12.52;100.00;96564.56;4831958;29;19929;-45
2022/09/27 08:01:48;;;;;;;;;;;;;;;12.59;100.00;96570.94;4846865;29;20073;-47
2022/09/27 08:04:15;;;;;;;;;;;;;;;12.82;100.00;96561.63;4840165;29;19936;-44
2022/09/27 08:06:42;;;;;;;;;;;;;;;12.97;100.00;96565.47;4849304;29;19932;-45
2022/09/27 08:09:10;;;;;;;;;;;;;;;13.03;100.00;96558.75;4851314;29;19950;-44
2022/09/27 08:11:39;;;;;;;;;;;;;;;13.10;100.00;96565.94;4853920;29;19935;-44
2022/09/27 08:14:09;;;;;;;;;;;;;;;12.96;100.00;96561.13;4840154;29;20409;-46
2022/09/27 08:16:39;;;;;;;;;;;;;;;13.20;100.00;96557.97;4836663;29;20020;-44
2022/09/27 08:19:25;;;;;;;;;;;;;;;13.37;100.00;96557.16;4848607;29;19928;-46
2022/09/27 08:22:27;;;;;;;;;;;;;;;13.32;100.00;96556.75;4849932;29;19936;-45
2022/09/27 08:25:02;;;;;;;;;;;;;;;13.24;100.00;96551.41;4887794;29;20387;-48
2022/09/27 08:27:54;;;;;;;;;;;;;;;13.44;100.00;96556.38;4915046;29;20730;-45
2022/09/27 08:30:34;;;;;;;;;;;;;;;13.59;100.00;96544.28;4909932;29;19931;-46
2022/09/27 08:33:02;;;;;;;;;;;;;;;13.49;100.00;96540.06;4912764;28;20285;-44
2022/09/27 08:35:32;;;;;;;;;;;;;;;13.50;100.00;96526.72;4990723;28;20370;-45
2022/09/27 08:38:00;;;;;;;;;;;;;;;13.38;100.00;96522.66;4973613;28;19926;-44
2022/09/27 08:40:35;;;;;;;;;;;;;;;13.64;100.00;96517.41;4970427;28;19934;-44
2022/09/27 08:43:06;;;;;;;;;;;;;;;13.56;100.00;96514.72;4970123;28;19965;-44
2022/09/27 08:45:39;;;;;;;;;;;;;;;13.47;100.00;96521.72;4970159;28;19977;-44
2022/09/27 08:48:10;;;;;;;;;;;;;;;13.33;100.00;96513.53;4984422;28;20016;-43
2022/09/27 08:50:41;;;;;;;;;;;;;;;13.44;100.00;96519.38;4989756;28;20024;-45
2022/09/27 08:53:17;;;;;;;;;;;;;;;13.31;100.00;96513.69;4989616;28;19925;-44
2022/09/27 08:55:46;;;;;;;;;;;;;;;13.21;100.00;96522.63;4989786;28;19932;-45
2022/09/27 08:58:23;;;;;;;;;;;;;;;13.43;100.00;96511.63;4987527;28;19926;-45
2022/09/27 09:00:54;;;;;;;;;;;;;;;13.29;100.00;96512.97;4986194;28;20441;-45
2022/09/27 09:03:24;;;;;;;;;;;;;;;13.29;100.00;96512.97;4986970;28;20171;-44
2022/09/27 09:06:02;;;;;;;;;;;;;;;13.56;100.00;96517.34;4987083;28;19933;-46
2022/09/27 09:08:33;;;;;;;;;;;;;;;13.61;100.00;96501.84;4971028;28;19980;-44
2022/09/27 09:14:18;;;;;;;;;;;;;;;13.67;100.00;96506.53;4952102;28;19926;-44
2022/09/27 09:16:54;;;;;;;;;;;;;;;13.50;100.00;96504.75;4962055;28;19933;-44
2022/09/27 09:19:33;;;;;;;;;;;;;;;13.86;100.00;96506.31;4951576;28;19933;-44
2022/09/27 09:22:29;;;;;;;;;;;;;;;13.81;100.00;96496.22;4939713;29;20533;-43
2022/09/27 09:25:03;;;;;;;;;;;;;;;14.03;100.00;96498.34;4915639;29;19926;-45
2022/09/27 09:27:37;;;;;;;;;;;;;;;14.21;100.00;96488.56;4951796;28;19932;-44
2022/09/27 09:30:12;;;;;;;;;;;;;;;13.94;100.00;96483.41;4952058;28;20110;-44
2022/09/27 09:32:51;;;;;;;;;;;;;;;14.08;100.00;96487.28;4951300;28;20024;-44
2022/09/27 09:35:22;;;;;;;;;;;;;;;14.19;100.00;96484.41;4951759;28;19926;-45
2022/09/27 09:37:53;;;;;;;;;;;;;;;14.69;100.00;96481.78;4965595;28;19926;-46
2022/09/27 09:40:22;;;;;;;;;;;;;;;14.68;100.00;96480.16;4968141;28;19974;-44
2022/09/27 09:42:52;;;;;;;;;;;;;;;14.24;100.00;96472.38;4951754;28;19933;-44
2022/09/27 09:45:22;;;;;;;;;;;;;;;14.47;100.00;96470.81;4950400;28;19927;-44
2022/09/27 09:47:53;;;;;;;;;;;;;;;14.70;100.00;96467.56;4959016;28;20010;-44
2022/09/27 09:50:25;;;;;;;;;;;;;;;14.39;95.95;96464.66;4976098;28;20016;-45
2022/09/27 09:52:57;;;;;;;;;;;;;;;14.40;96.29;96458.38;4985562;28;19929;-44
2022/09/27 09:55:28;;;;;;;;;;;;;;;14.62;95.66;96462.25;4988018;28;19933;-44
2022/09/27 09:58:01;;;;;;;;;;;;;;;14.48;95.21;96451.31;4987919;28;19925;-44
2022/09/27 10:00:34;;;;;;;;;;;;;;;14.35;93.75;96442.97;4987878;28;20684;-44
2022/09/27 10:03:03;;;;;;;;;;;;;;;14.56;94.11;96450.50;4988247;28;20381;-45
2022/09/27 10:05:31;;;;;;;;;;;;;;;14.66;93.89;96447.72;4978149;28;20013;-47
2022/09/27 10:08:05;;;;;;;;;;;;;;;14.65;92.79;96446.06;4965712;28;19961;-44
2022/09/27 10:10:34;;;;;;;;;;;;;;;14.70;94.85;96438.44;4977012;28;19926;-44
2022/09/27 10:13:22;;;;;;;;;;;;;;;15.00;98.20;96436.03;4985700;28;19933;-44
2022/09/27 10:15:56;;;;;;;;;;;;;;;14.38;94.88;96431.25;4984639;28;19981;-45
2022/09/27 10:18:25;;;;;;;;;;;;;;;14.38;93.90;96426.78;4990515;28;19985;-46
2022/09/27 10:20:58;;;;;;;;;;;;;;;14.74;96.61;96422.09;4970760;28;19937;-46
2022/09/27 10:23:28;;;;;;;;;;;;;;;14.76;94.82;96414.78;4956981;28;20393;-44
2022/09/27 10:26:20;;;;;;;;;;;;;;;14.64;94.46;96417.94;4961577;28;19969;-45
2022/09/27 10:28:51;;;;;;;;;;;;;;;14.43;93.94;96405.97;4990346;28;19925;-44
2022/09/27 10:31:34;;;;;;;;;;;;;;;14.46;91.51;96403.00;4987350;28;19933;-45
2022/09/27 10:34:17;;;;;;;;;;;;;;;14.40;92.81;96393.06;4989886;28;20025;-44
2022/09/27 10:37:01;;;;;;;;;;;;;;;14.59;93.84;96400.69;4987711;28;19926;-44
2022/09/27 10:39:30;;;;;;;;;;;;;;;14.74;92.86;96398.25;4990703;28;19925;-44
2022/09/27 10:42:30;;;;;;;;;;;;;;;14.78;92.91;96398.75;4988323;28;19934;-47
2022/09/27 10:45:22;;;;;;;;;;;;;;;14.91;92.35;96399.94;4987264;28;20325;-44
2022/09/27 10:47:56;;;;;;;;;;;;;;;14.96;93.52;96391.47;4990673;28;20385;-45
2022/09/27 10:50:39;;;;;;;;;;;;;;;14.96;90.82;96387.03;4988757;28;20293;-44
2022/09/27 10:53:22;;;;;;;;;;;;;;;14.82;87.39;96377.09;4989843;28;20020;-44
2022/09/27 10:56:07;;;;;;;;;;;;;;;15.25;88.92;96382.09;4983330;28;20285;-45
2022/09/27 10:58:46;;;;;;;;;;;;;;;15.18;88.42;96385.56;4985779;28;19932;-44
2022/09/27 11:01:15;;;;;;;;;;;;;;;15.12;85.36;96370.34;4982242;28;19926;-43
2022/09/27 11:04:27;;;;;;;;;;;;;;;15.20;87.32;96378.28;4974891;28;20040;-47
2022/09/27 11:07:06;;;;;;;;;;;;;;;14.86;86.45;96367.81;4969847;28;19996;-45
2022/09/27 11:09:44;;;;;;;;;;;;;;;15.17;86.57;96373.31;4973581;28;19930;-45
2022/09/27 11:12:19;;;;;;;;;;;;;;;15.28;89.52;96367.69;4981478;28;20440;-44
2022/09/27 11:14:53;;;;;;;;;;;;;;;15.24;89.78;96369.00;4971427;28;19932;-46
2022/09/27 11:17:28;;;;;;;;;;;;;;;15.25;89.84;96376.78;4979485;28;19934;-45
2022/09/27 11:20:20;;;;;;;;;;;;;;;15.25;88.90;96362.72;4974204;28;19976;-46
2022/09/27 11:23:03;;;;;;;;;;;;;;;14.98;88.13;96363.03;4990953;28;19979;-45
2022/09/27 11:25:37;;;;;;;;;;;;;;;15.11;90.87;96368.63;5007602;28;19932;-46
2022/09/27 11:28:12;;;;;;;;;;;;;;;15.00;90.32;96361.88;4991646;28;20324;-44
2022/09/27 11:30:45;;;;;;;;;;;;;;;14.98;90.81;96355.09;4993625;28;19932;-44
2022/09/27 11:33:46;;;;;;;;;;;;;;;15.11;87.62;96358.03;5003324;28;19929;-44
2022/09/27 11:36:15;;;;;;;;;;;;;;;14.78;86.53;96346.63;4990435;28;19969;-44
2022/09/27 11:38:53;;;;;;;;;;;;;;;14.89;87.37;96351.59;4989344;28;19932;-44
2022/09/27 11:41:28;;;;;;;;;;;;;;;14.92;84.31;96353.09;4973650;28;19932;-44
2022/09/27 11:44:05;;;;;;;;;;;;;;;15.15;85.74;96339.03;5008770;28;19999;-45
2022/09/27 11:46:34;;;;;;;;;;;;;;;14.95;86.88;96340.38;4983837;28;19930;-44
2022/09/27 11:49:13;;;;;;;;;;;;;;;15.12;87.84;96338.56;4985411;28;20296;-45
2022/09/27 11:51:50;;;;;;;;;;;;;;;15.03;84.34;96335.06;4986190;28;20195;-44
2022/09/27 11:54:31;;;;;;;;;;;;;;;15.54;88.53;96329.38;4986748;28;19929;-44
2022/09/27 11:57:02;;;;;;;;;;;;;;;15.43;86.04;96327.09;5009043;28;19925;-46
2022/09/27 11:59:42;;;;;;;;;;;;;;;15.60;86.81;96323.38;4990401;28;20028;-45
2022/09/27 12:02:17;;;;;;;;;;;;;;;15.44;83.97;96322.59;4975265;28;19932;-47
2022/09/27 12:04:57;;;;;;;;;;;;;;;15.42;82.57;96319.31;4986409;28;19976;-45
2022/09/27 12:07:30;;;;;;;;;;;;;;;15.24;83.71;96319.50;4990406;28;19946;-46
2022/09/27 12:10:02;;;;;;;;;;;;;;;15.29;85.16;96313.69;5007092;28;19929;-44
2022/09/27 12:12:32;;;;;;;;;;;;;;;15.23;86.53;96315.19;4989019;28;19936;-44
2022/09/27 12:15:03;;;;;;;;;;;;;;;15.21;87.08;96309.25;5003177;28;19968;-46
2022/09/27 12:17:33;;;;;;;;;;;;;;;15.08;85.94;96321.31;4988011;28;20023;-44
2022/09/27 12:20:03;;;;;;;;;;;;;;;14.78;86.01;96317.53;4988864;28;19925;-45
2022/09/27 12:22:43;;;;;;;;;;;;;;;14.80;86.34;96317.34;4988899;28;19929;-45
2022/09/27 12:25:14;;;;;;;;;;;;;;;14.87;85.77;96302.47;4971452;28;20433;-48
2022/09/27 12:27:49;;;;;;;;;;;;;;;14.98;85.94;96307.41;4989778;28;20020;-46
2022/09/27 12:30:23;;;;;;;;;;;;;;;14.96;88.92;96304.94;4989776;28;20381;-44
2022/09/27 12:32:56;;;;;;;;;;;;;;;14.49;86.37;96302.13;4987190;28;19926;-44
2022/09/27 12:35:27;;;;;;;;;;;;;;;14.43;86.83;96302.78;5002876;28;20296;-45
2022/09/27 12:37:59;;;;;;;;;;;;;;;14.34;90.52;96297.63;4990843;28;19929;-43
2022/09/27 12:40:29;;;;;;;;;;;;;;;14.34;91.18;96293.19;5001886;28;21130;-45
2022/09/27 12:43:02;;;;;;;;;;;;;;;14.38;91.36;96289.22;5002091;28;19929;-45
2022/09/27 12:45:55;;;;;;;;;;;;;;;14.48;89.20;96295.19;5007064;28;19929;-45
2022/09/27 12:48:29;;;;;;;;;;;;;;;14.53;88.99;96288.56;4988804;28;19929;-46
2022/09/27 12:51:02;;;;;;;;;;;;;;;14.72;88.84;96286.41;4987001;28;19983;-47
2022/09/27 12:53:38;;;;;;;;;;;;;;;14.82;87.12;96289.72;4998570;28;20012;-44
2022/09/27 12:56:18;;;;;;;;;;;;;;;14.93;87.58;96285.91;4988267;28;19991;-43
2022/09/27 12:59:09;;;;;;;;;;;;;;;15.05;88.25;96277.44;4972414;28;19925;-45
2022/09/27 13:01:45;;;;;;;;;;;;;;;14.81;86.19;96269.53;5005982;28;20019;-47
2022/09/27 13:04:25;;;;;;;;;;;;;;;14.82;86.40;96273.00;4986236;28;19987;-45
2022/09/27 13:07:09;;;;;;;;;;;;;;;14.51;89.18;96271.03;4987353;28;20271;-46
2022/09/27 13:09:50;;;;;;;;;;;;;;;14.34;90.63;96268.53;4984898;28;19969;-46
2022/09/27 13:12:20;;;;;;;;;;;;;;;14.25;92.66;96267.69;4999504;28;19929;-44
2022/09/27 13:14:51;;;;;;;;;;;;;;;14.11;94.34;96267.50;5002480;28;19980;-47
2022/09/27 13:17:39;;;;;;;;;;;;;;;14.08;94.00;96263.38;5008876;28;19979;-44
2022/09/27 13:20:26;;;;;;;;;;;;;;;13.95;92.89;96263.00;4987402;28;19930;-45
2022/09/27 13:22:56;;;;;;;;;;;;;;;13.97;91.77;96263.66;4988393;28;20378;-46
2022/09/27 13:25:47;;;;;;;;;;;;;;;13.93;91.67;96259.69;4989229;28;20301;-52
2022/09/27 13:28:32;;;;;;;;;;;;;;;14.02;93.01;96256.06;4985744;28;20344;-46
2022/09/27 13:31:03;;;;;;;;;;;;;;;14.28;93.65;96251.50;4978876;28;20039;-48